< < Back
Terminal Aerodrome Forecast


Current Version              Previous Versions:   1  2  3  4  5  6  7  8  9  

Terminal Aerodrome Forecast

486
FTUS42 KGSP 031205 AAB
TAFAVL
TAF AMD
KAVL 031205Z 0312/0412 00000KT 6SM BR VCSH SCT003 OVC060
      TEMPO 0312/0315 BKN003 OVC060
     FM031500 25003KT P6SM -SHRA OVC040
     FM031800 23008KT P6SM -SHRA VCTS OVC040CB
     FM032100 26008KT P6SM -SHRA VCTS BKN040CB
     FM040000 29007KT P6SM BKN040
     FM041000 28003KT P6SM OVC020=

Latest METAR

698
SAUS70 KWBC 040400 RRG
MTRAVL
METAR KAVL 040354Z AUTO 22003KT 10SM CLR 19/16 A3003 RMK AO2 SLP145
T01940161


USA.gov is the U.S. government's official web portal to all federal, state and local government web resources and services.